createdAt,value
2018-03-20T00:02:06.711Z,11.17
2018-03-20T00:04:34.222Z,10.00
2018-03-20T00:07:01.696Z,10.87
2018-03-20T00:09:29.153Z,9.57
2018-03-20T00:11:56.630Z,10.60
2018-03-20T00:14:24.874Z,9.93
2018-03-20T00:16:52.347Z,10.23
2018-03-20T00:19:19.849Z,10.23
2018-03-20T00:21:47.314Z,9.63
2018-03-20T00:24:14.790Z,10.93
2018-03-20T00:26:42.304Z,9.70
2018-03-20T00:29:09.786Z,10.67
2018-03-20T00:31:37.379Z,10.93
2018-03-20T00:34:04.954Z,10.60
2018-03-20T00:36:33.186Z,9.83
2018-03-20T00:39:00.646Z,11.10
2018-03-20T00:41:28.221Z,10.20
2018-03-20T00:43:55.702Z,10.33
2018-03-20T00:46:23.187Z,10.07
2018-03-20T00:48:50.646Z,9.67
2018-03-20T00:51:18.109Z,10.13
2018-03-20T00:53:46.267Z,10.13
2018-03-20T00:56:13.761Z,9.40
2018-03-20T00:58:41.314Z,9.87
2018-03-20T01:01:08.802Z,9.77
2018-03-20T01:03:36.289Z,10.07
2018-03-20T01:06:03.766Z,9.73
2018-03-20T01:08:31.256Z,10.40
2018-03-20T01:10:58.731Z,10.07
2018-03-20T01:13:26.202Z,10.10
2018-03-20T01:15:53.707Z,10.40
2018-03-20T01:18:21.182Z,10.67
2018-03-20T01:20:48.671Z,10.90
2018-03-20T01:23:16.138Z,10.53
2018-03-20T01:25:43.610Z,10.37
2018-03-20T01:28:11.090Z,10.50
2018-03-20T01:30:38.557Z,11.47
2018-03-20T01:33:06.042Z,11.63
2018-03-20T01:35:33.509Z,10.73
2018-03-20T01:38:01.746Z,10.57
2018-03-20T01:40:29.994Z,10.43
2018-03-20T01:42:57.569Z,11.67
2018-03-20T01:45:25.095Z,11.63
2018-03-20T01:47:52.530Z,10.77
2018-03-20T01:50:19.994Z,11.07
2018-03-20T01:52:47.455Z,11.33
2018-03-20T01:55:14.934Z,10.40
2018-03-20T01:57:42.457Z,9.93
2018-03-20T02:00:09.943Z,11.50
2018-03-20T02:02:37.433Z,11.27
2018-03-20T02:05:06.448Z,11.70
2018-03-20T02:07:34.687Z,10.65
2018-03-20T02:10:02.930Z,10.70
2018-03-20T02:12:30.433Z,9.80
2018-03-20T02:14:58.031Z,10.63
2018-03-20T02:17:25.570Z,10.80
2018-03-20T02:19:53.087Z,10.65
2018-03-20T02:22:20.673Z,11.25
2018-03-20T02:24:48.146Z,10.50
2018-03-20T02:27:16.273Z,10.45
2018-03-20T02:29:44.521Z,9.98
2018-03-20T02:32:11.997Z,10.50
2018-03-20T02:34:39.519Z,9.85
2018-03-20T02:37:08.501Z,9.70
2018-03-20T02:39:36.021Z,10.02
2018-03-20T02:42:03.494Z,10.73
2018-03-20T02:44:30.992Z,9.65
2018-03-20T02:46:58.476Z,10.52
2018-03-20T02:49:26.046Z,9.77
2018-03-20T02:51:53.539Z,10.73
2018-03-20T02:54:21.012Z,10.13
2018-03-20T02:56:48.510Z,10.45
2018-03-20T02:59:16.530Z,10.60
2018-03-20T03:01:44.786Z,10.15
2018-03-20T03:04:12.297Z,9.32
2018-03-20T03:06:39.778Z,10.18
2018-03-20T03:09:07.345Z,9.52
2018-03-20T03:11:34.821Z,9.60
2018-03-20T03:14:02.320Z,9.63
2018-03-20T03:16:29.796Z,10.15
2018-03-20T03:18:57.307Z,9.57
2018-03-20T03:21:24.774Z,9.73
2018-03-20T03:23:52.355Z,9.32
2018-03-20T03:26:19.835Z,10.05
2018-03-20T03:28:48.018Z,10.18
2018-03-20T03:31:15.767Z,10.35
2018-03-20T03:33:43.251Z,8.98
2018-03-20T03:36:10.725Z,8.70
2018-03-20T03:38:38.959Z,9.93
2018-03-20T03:41:06.438Z,9.50
2018-03-20T03:43:33.961Z,10.10
2018-03-20T03:46:01.550Z,9.77
2018-03-20T03:48:29.016Z,9.40
2018-03-20T03:50:56.499Z,9.15
2018-03-20T03:53:23.992Z,9.95
2018-03-20T03:55:51.465Z,8.95
2018-03-20T03:58:18.959Z,9.13
2018-03-20T04:00:47.361Z,10.75
2018-03-20T04:03:14.830Z,9.40
2018-03-20T04:05:42.326Z,10.00
2018-03-20T04:08:09.794Z,9.90
2018-03-20T04:10:37.278Z,9.82
2018-03-20T04:13:04.741Z,9.75
2018-03-20T04:15:32.226Z,9.85
2018-03-20T04:17:59.699Z,8.82
2018-03-20T04:20:27.180Z,9.77
2018-03-20T04:22:54.672Z,9.73
2018-03-20T04:25:22.193Z,10.13
2018-03-20T04:27:50.464Z,9.50
2018-03-20T04:30:17.955Z,10.50
2018-03-20T04:32:45.442Z,9.20
2018-03-20T04:35:12.961Z,9.50
2018-03-20T04:37:41.218Z,9.57
2018-03-20T04:40:08.716Z,9.80
2018-03-20T04:42:36.212Z,10.05
2018-03-20T04:45:03.783Z,10.45
2018-03-20T04:47:31.261Z,10.07
2018-03-20T04:49:58.836Z,10.50
2018-03-20T04:52:26.320Z,9.93
2018-03-20T04:54:53.806Z,9.77
2018-03-20T04:57:21.275Z,9.93
2018-03-20T04:59:48.755Z,10.00
2018-03-20T05:02:16.236Z,10.20
2018-03-20T05:04:44.226Z,10.35
2018-03-20T05:07:11.690Z,10.52
2018-03-20T05:09:39.219Z,12.05
2018-03-20T05:12:06.706Z,12.32
2018-03-20T05:14:34.199Z,10.77
2018-03-20T05:17:01.678Z,9.77
2018-03-20T05:22:36.421Z,9.95
2018-03-20T05:25:04.650Z,10.40
2018-03-20T05:27:32.132Z,11.25
2018-03-20T05:29:59.607Z,11.80
2018-03-20T05:32:27.106Z,11.00
2018-03-20T05:34:54.570Z,9.68
2018-03-20T05:37:22.055Z,10.13
2018-03-20T05:39:49.513Z,10.10
2018-03-20T05:42:17.765Z,11.02
2018-03-20T05:44:45.230Z,10.38
2018-03-20T05:47:13.087Z,11.12
2018-03-20T05:49:47.168Z,11.45
2018-03-20T05:52:14.667Z,12.15
2018-03-20T05:54:42.173Z,13.98
2018-03-20T05:57:10.448Z,13.52
2018-03-20T05:59:37.930Z,12.25
2018-03-20T06:02:05.533Z,14.82
2018-03-20T06:04:33.100Z,11.98
2018-03-20T06:07:00.579Z,11.68
2018-03-20T06:09:28.063Z,12.80
2018-03-20T06:11:55.542Z,12.48
2018-03-20T06:14:23.038Z,12.20
2018-03-20T06:16:54.361Z,12.80
2018-03-20T06:19:21.994Z,12.48
2018-03-20T06:21:49.595Z,13.57
2018-03-20T06:24:17.171Z,11.75
2018-03-20T06:26:44.639Z,11.10
2018-03-20T06:29:13.528Z,10.80
2018-03-20T06:31:41.091Z,10.98
2018-03-20T06:34:08.561Z,10.55
2018-03-20T06:36:36.036Z,10.35
2018-03-20T06:39:03.514Z,10.02
2018-03-20T06:41:30.987Z,10.48
2018-03-20T06:43:58.473Z,10.05
2018-03-20T06:46:25.942Z,11.30
2018-03-20T06:48:53.426Z,9.77
2018-03-20T06:51:20.899Z,10.63
2018-03-20T06:53:49.138Z,10.55
2018-03-20T06:56:16.609Z,10.40
2018-03-20T06:58:44.244Z,9.63
2018-03-20T07:01:11.806Z,10.88
2018-03-20T07:03:39.299Z,9.98
2018-03-20T07:06:06.895Z,10.82
2018-03-20T07:08:35.154Z,9.77
2018-03-20T07:11:02.666Z,9.93
2018-03-20T07:13:30.146Z,10.90
2018-03-20T07:15:57.635Z,9.80
2018-03-20T07:18:25.222Z,10.50
2018-03-20T07:20:52.810Z,10.48
2018-03-20T07:23:20.286Z,10.30
2018-03-20T07:25:47.759Z,9.50
2018-03-20T07:28:15.235Z,10.00
2018-03-20T07:30:42.787Z,10.70
2018-03-20T07:33:11.048Z,10.23
2018-03-20T07:35:38.534Z,11.40
2018-03-20T07:38:05.999Z,9.87
2018-03-20T07:40:33.482Z,8.90
2018-03-20T07:43:00.970Z,8.10
2018-03-20T07:45:28.455Z,7.87
2018-03-20T07:47:55.931Z,8.90
2018-03-20T07:50:23.425Z,8.80
2018-03-20T07:52:50.887Z,8.80
2018-03-20T07:55:18.461Z,9.30
2018-03-20T07:57:45.922Z,9.53
2018-03-20T08:00:13.382Z,9.93
2018-03-20T08:02:40.842Z,9.60
2018-03-20T08:05:09.074Z,9.73
2018-03-20T08:07:36.539Z,11.67
2018-03-20T08:10:04.003Z,10.53
2018-03-20T08:12:32.269Z,10.40
2018-03-20T08:14:59.749Z,10.40
2018-03-20T08:17:27.230Z,9.57
2018-03-20T08:19:54.834Z,10.17
2018-03-20T08:22:22.320Z,9.60
2018-03-20T08:24:49.804Z,10.20
2018-03-20T08:27:17.268Z,9.63
2018-03-20T08:29:44.784Z,10.07
2018-03-20T08:32:12.569Z,10.77
2018-03-20T08:34:40.046Z,11.50
2018-03-20T08:37:07.511Z,10.27
2018-03-20T08:39:35.014Z,11.30
2018-03-20T08:42:02.480Z,10.90
2018-03-20T08:44:29.942Z,9.40
2018-03-20T08:46:57.406Z,9.88
2018-03-20T08:49:25.643Z,10.35
2018-03-20T08:51:53.142Z,10.93
2018-03-20T08:54:20.634Z,10.40
2018-03-20T08:56:48.098Z,10.55
2018-03-20T08:59:15.568Z,10.85
2018-03-20T09:01:44.158Z,10.00
2018-03-20T09:04:11.620Z,10.27
2018-03-20T09:06:39.845Z,9.63
2018-03-20T09:09:07.305Z,8.93
2018-03-20T09:11:35.533Z,8.87
2018-03-20T09:14:02.990Z,8.40
2018-03-20T09:16:31.228Z,7.70
2018-03-20T09:18:58.738Z,8.00
2018-03-20T09:21:26.323Z,7.53
2018-03-20T09:23:53.806Z,7.07
2018-03-20T09:26:21.394Z,7.53
2018-03-20T09:28:48.971Z,6.77
2018-03-20T09:31:16.441Z,6.97
2018-03-20T09:33:44.726Z,7.27
2018-03-20T09:36:12.186Z,6.50
2018-03-20T09:38:39.711Z,6.27
2018-03-20T09:41:07.170Z,6.40
2018-03-20T09:43:35.502Z,6.30
2018-03-20T09:46:02.972Z,5.63
2018-03-20T09:48:30.445Z,5.97
2018-03-20T09:50:57.994Z,6.77
2018-03-20T09:53:26.254Z,5.70
2018-03-20T09:55:53.713Z,5.43
2018-03-20T09:58:21.224Z,6.10
2018-03-20T10:00:48.714Z,6.00
2018-03-20T10:03:16.176Z,6.20
2018-03-20T10:05:43.671Z,6.57
2018-03-20T10:08:11.126Z,5.70
2018-03-20T10:10:38.649Z,5.60
2018-03-20T10:13:06.222Z,6.20
2018-03-20T10:15:33.683Z,7.77
2018-03-20T10:18:01.156Z,8.03
2018-03-20T10:20:28.615Z,8.43
2018-03-20T10:22:56.166Z,7.80
2018-03-20T10:25:23.655Z,8.37
2018-03-20T10:27:51.111Z,9.00
2018-03-20T10:30:18.574Z,8.03
2018-03-20T10:32:46.103Z,8.73
2018-03-20T10:35:13.562Z,9.27
2018-03-20T10:37:41.067Z,8.77
2018-03-20T10:40:08.523Z,8.87
2018-03-20T10:42:36.036Z,9.07
2018-03-20T10:45:03.539Z,9.37
2018-03-20T10:47:31.031Z,8.80
2018-03-20T10:49:58.616Z,9.33
2018-03-20T10:52:26.080Z,9.87
2018-03-20T10:54:53.555Z,9.60
2018-03-20T10:57:21.022Z,10.57
2018-03-20T10:59:48.491Z,9.97
2018-03-20T11:02:19.582Z,10.60
2018-03-20T11:04:47.087Z,11.17
2018-03-20T11:07:15.178Z,10.10
2018-03-20T11:09:42.676Z,10.83
2018-03-20T11:14:43.752Z,9.73
2018-03-20T11:17:12.025Z,10.50
2018-03-20T11:19:39.486Z,8.93
2018-03-20T11:22:06.986Z,9.10
2018-03-20T11:24:34.447Z,8.63
2018-03-20T11:27:01.907Z,9.00
2018-03-20T11:29:29.374Z,8.93
2018-03-20T11:31:57.643Z,9.03
2018-03-20T11:34:25.103Z,8.43
2018-03-20T11:36:52.606Z,8.17
2018-03-20T11:39:20.087Z,9.30
2018-03-20T11:41:47.547Z,7.50
2018-03-20T11:44:15.014Z,8.07
2018-03-20T11:46:42.505Z,8.67
2018-03-20T11:49:09.965Z,9.57
2018-03-20T11:51:38.227Z,9.43
2018-03-20T11:54:05.686Z,8.83
2018-03-20T11:56:33.151Z,9.87
2018-03-20T11:59:00.611Z,10.83
2018-03-20T12:01:28.850Z,8.90
2018-03-20T12:03:56.360Z,9.40
2018-03-20T12:06:23.851Z,9.93
2018-03-20T12:08:51.315Z,10.57
2018-03-20T12:11:18.801Z,9.97
2018-03-20T12:13:46.303Z,10.23
2018-03-20T12:16:14.618Z,11.00
2018-03-20T12:18:42.084Z,11.90
2018-03-20T12:21:09.566Z,11.27
2018-03-20T12:23:37.027Z,11.90
2018-03-20T12:26:04.489Z,11.27
2018-03-20T12:28:31.946Z,9.97
2018-03-20T12:31:00.216Z,11.17
2018-03-20T12:33:27.694Z,11.90
2018-03-20T12:35:55.163Z,11.17
2018-03-20T12:38:22.668Z,10.20
2018-03-20T12:40:50.130Z,10.70
2018-03-20T12:43:19.856Z,10.83
2018-03-20T12:45:47.582Z,11.90
2018-03-20T12:48:15.057Z,10.50
2018-03-20T12:50:42.794Z,9.57
2018-03-20T12:53:10.242Z,9.60
2018-03-20T12:55:37.811Z,10.47
2018-03-20T12:58:05.285Z,10.73
2018-03-20T13:00:32.746Z,11.60
2018-03-20T13:03:00.211Z,11.10
2018-03-20T13:05:27.703Z,9.90
2018-03-20T13:07:55.198Z,10.03
2018-03-20T13:10:23.407Z,10.57
2018-03-20T13:12:50.875Z,11.40
2018-03-20T13:15:18.331Z,10.10
2018-03-20T13:17:46.601Z,11.23
2018-03-20T13:20:14.712Z,10.17
2018-03-20T13:22:42.171Z,9.97
2018-03-20T13:25:10.427Z,10.73
2018-03-20T13:27:37.906Z,10.80
2018-03-20T13:30:05.409Z,10.90
2018-03-20T13:32:32.899Z,10.53
2018-03-20T13:35:00.354Z,11.47
2018-03-20T13:37:27.922Z,10.83
2018-03-20T13:39:55.393Z,11.17
2018-03-20T13:42:23.631Z,10.03
2018-03-20T13:44:51.179Z,10.50
2018-03-20T13:47:18.660Z,10.47
2018-03-20T13:49:46.154Z,9.87
2018-03-20T13:52:13.732Z,10.30
2018-03-20T13:54:41.208Z,10.50
2018-03-20T13:57:08.662Z,11.07
2018-03-20T13:59:36.127Z,10.33
2018-03-20T14:02:04.484Z,10.03
2018-03-20T14:04:31.952Z,10.27
2018-03-20T14:06:59.471Z,9.87
2018-03-20T14:09:26.940Z,11.97
2018-03-20T14:11:54.414Z,11.67
2018-03-20T14:14:21.890Z,9.87
2018-03-20T14:16:50.132Z,9.60
2018-03-20T14:19:17.591Z,9.70
2018-03-20T14:21:45.059Z,9.67
2018-03-20T14:24:12.674Z,9.87
2018-03-20T14:26:40.139Z,10.73
2018-03-20T14:29:07.618Z,10.03
2018-03-20T14:31:35.078Z,11.67
2018-03-20T14:34:02.658Z,10.87
2018-03-20T14:36:30.269Z,10.47
2018-03-20T14:38:57.755Z,10.83
2018-03-20T14:41:25.280Z,11.27
2018-03-20T14:43:53.550Z,10.67
2018-03-20T14:46:21.023Z,11.27
2018-03-20T14:48:48.483Z,10.60
2018-03-20T14:51:16.714Z,10.40
2018-03-20T14:53:44.854Z,11.07
2018-03-20T14:56:12.663Z,10.63
2018-03-20T14:58:40.945Z,9.93
2018-03-20T15:01:08.427Z,17.37
2018-03-20T15:03:35.926Z,10.87
2018-03-20T15:06:03.399Z,11.87
2018-03-20T15:08:30.893Z,10.83
2018-03-20T15:10:58.358Z,10.33
2018-03-20T15:13:25.984Z,9.63
2018-03-20T15:15:54.280Z,10.33
2018-03-20T15:18:22.570Z,11.67
2018-03-20T15:20:50.027Z,11.03
2018-03-20T15:23:17.498Z,10.33
2018-03-20T15:25:45.101Z,10.97
2018-03-20T15:28:12.618Z,9.83
2018-03-20T15:30:40.846Z,10.43
2018-03-20T15:33:08.304Z,10.23
2018-03-20T15:35:36.534Z,10.53
2018-03-20T15:38:03.994Z,10.07
2018-03-20T15:40:31.522Z,9.60
2018-03-20T15:42:59.261Z,10.33
2018-03-20T15:45:27.490Z,10.53
2018-03-20T15:47:54.957Z,10.73
2018-03-20T15:50:22.428Z,12.23
2018-03-20T15:52:50.659Z,14.40
2018-03-20T15:55:18.130Z,13.20
2018-03-20T15:57:45.602Z,10.73
2018-03-20T16:00:13.900Z,11.17
2018-03-20T16:02:41.374Z,11.60
2018-03-20T16:05:08.907Z,19.73
2018-03-20T16:07:37.410Z,11.53
2018-03-20T16:10:04.882Z,11.27
2018-03-20T16:12:32.379Z,10.60
2018-03-20T16:14:59.957Z,10.77
2018-03-20T16:17:27.452Z,10.87
2018-03-20T16:19:56.175Z,11.37
2018-03-20T16:22:23.751Z,11.17
2018-03-20T16:24:51.248Z,12.10
2018-03-20T16:27:18.723Z,11.47
2018-03-20T16:29:46.250Z,10.50
2018-03-20T16:32:14.438Z,10.83
2018-03-20T16:34:43.040Z,11.30
2018-03-20T16:37:10.512Z,11.20
2018-03-20T16:39:38.779Z,11.57
2018-03-20T16:42:06.284Z,10.47
2018-03-20T16:44:33.825Z,10.30
2018-03-20T16:47:01.346Z,10.50
2018-03-20T16:49:29.229Z,11.00
2018-03-20T16:51:56.729Z,11.50
2018-03-20T16:54:25.311Z,12.80
2018-03-20T16:56:52.822Z,12.53
2018-03-20T16:59:20.324Z,12.50
2018-03-20T17:01:48.869Z,16.90
2018-03-20T17:04:16.326Z,17.40
2018-03-20T17:06:44.565Z,13.10
2018-03-20T17:09:12.047Z,12.10
2018-03-20T17:11:39.520Z,11.73
2018-03-20T17:14:06.989Z,10.97
2018-03-20T17:16:34.530Z,11.10
2018-03-20T17:19:02.032Z,11.00
2018-03-20T17:21:29.483Z,11.63
2018-03-20T17:23:56.962Z,11.00
2018-03-20T17:26:25.193Z,12.47
2018-03-20T17:28:52.772Z,12.73
2018-03-20T17:31:20.246Z,14.43
2018-03-20T17:33:47.715Z,12.90
2018-03-20T17:36:15.317Z,13.33
2018-03-20T17:38:43.310Z,12.60
2018-03-20T17:41:10.845Z,13.97
2018-03-20T17:43:39.159Z,13.50
2018-03-20T17:46:06.617Z,12.73
2018-03-20T17:48:35.036Z,13.10
2018-03-20T17:51:02.572Z,13.03
2018-03-20T17:53:30.105Z,12.50
2018-03-20T17:55:57.582Z,11.53
2018-03-20T17:58:25.193Z,12.07
2018-03-20T18:00:52.680Z,10.40
2018-03-20T18:03:21.496Z,11.13
2018-03-20T18:05:49.773Z,10.80
2018-03-20T18:08:17.290Z,10.27
2018-03-20T18:10:44.777Z,9.27
2018-03-20T18:13:16.511Z,8.67
2018-03-20T18:15:48.794Z,9.53
2018-03-20T18:18:16.282Z,9.23
2018-03-20T18:20:44.186Z,9.90
2018-03-20T18:23:11.762Z,8.47
2018-03-20T18:25:39.277Z,6.93
2018-03-20T18:28:07.570Z,7.43
2018-03-20T18:30:34.975Z,7.07
2018-03-20T18:33:02.463Z,7.23
2018-03-20T18:35:29.936Z,6.80
2018-03-20T18:37:57.415Z,6.67
2018-03-20T18:40:24.882Z,7.40
2018-03-20T18:42:53.130Z,5.40
2018-03-20T18:45:20.622Z,5.57
2018-03-20T18:47:48.107Z,5.80
2018-03-20T18:50:15.586Z,6.43
2018-03-20T18:52:43.128Z,5.77
2018-03-20T18:55:10.595Z,6.30
2018-03-20T18:57:38.172Z,5.93
2018-03-20T19:00:06.482Z,5.57
2018-03-20T19:02:34.172Z,5.37
2018-03-20T19:05:01.716Z,5.97
2018-03-20T19:07:29.179Z,6.07
2018-03-20T19:09:56.786Z,5.80
2018-03-20T19:12:24.314Z,5.03
2018-03-20T19:14:51.798Z,5.07
2018-03-20T19:17:20.025Z,5.30
2018-03-20T19:19:47.554Z,5.90
2018-03-20T19:22:15.026Z,5.70
2018-03-20T19:24:42.852Z,5.80
2018-03-20T19:27:11.094Z,6.07
2018-03-20T19:29:38.596Z,6.33
2018-03-20T19:32:06.079Z,6.43
2018-03-20T19:34:33.553Z,6.70
2018-03-20T19:37:01.318Z,6.73
2018-03-20T19:39:28.782Z,6.37
2018-03-20T19:41:57.093Z,6.53
2018-03-20T19:44:24.588Z,6.37
2018-03-20T19:46:52.838Z,6.30
2018-03-20T19:49:20.318Z,6.27
2018-03-20T19:51:47.784Z,5.97
2018-03-20T19:54:15.247Z,7.37
2018-03-20T19:56:45.279Z,7.63
2018-03-20T19:59:13.579Z,7.17
2018-03-20T20:01:41.294Z,6.70
2018-03-20T20:04:09.565Z,6.87
2018-03-20T20:06:37.814Z,6.07
2018-03-20T20:09:05.299Z,6.03
2018-03-20T20:11:32.880Z,6.50
2018-03-20T20:14:00.476Z,6.67
2018-03-20T20:16:28.003Z,7.33
2018-03-20T20:18:56.232Z,6.97
2018-03-20T20:21:23.737Z,6.80
2018-03-20T20:23:51.723Z,6.53
2018-03-20T20:26:19.193Z,5.73
2018-03-20T20:28:46.656Z,6.20
2018-03-20T20:31:14.711Z,6.27
2018-03-20T20:33:42.186Z,6.17
2018-03-20T20:36:09.665Z,6.03
2018-03-20T20:38:37.246Z,6.20
2018-03-20T20:41:04.707Z,7.00
2018-03-20T20:43:32.205Z,6.83
2018-03-20T20:45:59.708Z,7.10
2018-03-20T20:48:27.169Z,8.43
2018-03-20T20:50:54.661Z,8.30
2018-03-20T20:53:22.130Z,8.20
2018-03-20T20:55:50.632Z,9.23
2018-03-20T20:58:18.863Z,10.10
2018-03-20T21:00:46.364Z,11.27
2018-03-20T21:03:14.540Z,10.37
2018-03-20T21:05:42.010Z,11.40
2018-03-20T21:08:09.501Z,11.03
2018-03-20T21:10:37.022Z,10.37
2018-03-20T21:13:04.510Z,10.10
2018-03-20T21:15:31.987Z,9.23
2018-03-20T21:17:59.458Z,8.97
2018-03-20T21:20:26.930Z,8.33
2018-03-20T21:22:54.442Z,7.73
2018-03-20T21:25:21.919Z,8.07
2018-03-20T21:27:49.444Z,9.10
2018-03-20T21:30:16.994Z,10.67
2018-03-20T21:32:45.404Z,12.50
2018-03-20T21:35:13.385Z,13.83
2018-03-20T21:37:40.975Z,16.23
2018-03-20T21:40:08.447Z,15.70
2018-03-20T21:42:35.922Z,15.73
2018-03-20T21:45:03.399Z,14.03
2018-03-20T21:47:30.875Z,14.00
2018-03-20T21:49:58.363Z,13.80
2018-03-20T21:52:25.882Z,12.83
2018-03-20T21:54:53.359Z,11.53
2018-03-20T21:57:20.838Z,12.23
2018-03-20T21:59:48.319Z,12.03
2018-03-20T22:02:15.827Z,9.67
2018-03-20T22:04:43.855Z,9.30
2018-03-20T22:07:11.341Z,7.87
2018-03-20T22:09:38.821Z,7.73
2018-03-20T22:12:06.310Z,7.00
2018-03-20T22:14:33.779Z,6.50
2018-03-20T22:17:02.030Z,7.40
2018-03-20T22:19:29.514Z,6.97
2018-03-20T22:21:57.003Z,7.47
2018-03-20T22:24:24.582Z,8.20
2018-03-20T22:26:52.074Z,8.70
2018-03-20T22:29:19.542Z,8.07
2018-03-20T22:31:47.012Z,8.00
2018-03-20T22:34:15.514Z,7.60
2018-03-20T22:36:43.601Z,8.60
2018-03-20T22:39:11.091Z,8.60
2018-03-20T22:41:38.606Z,8.13
2018-03-20T22:44:06.074Z,8.50
2018-03-20T22:46:33.566Z,7.80
2018-03-20T22:49:01.032Z,7.10
2018-03-20T22:51:28.507Z,7.57
2018-03-20T22:53:56.014Z,8.20
2018-03-20T22:56:23.505Z,8.17
2018-03-20T22:58:50.973Z,8.33
2018-03-20T23:01:18.475Z,7.83
2018-03-20T23:03:45.949Z,7.80
2018-03-20T23:06:13.959Z,7.50
2018-03-20T23:08:41.431Z,7.57
2018-03-20T23:11:08.903Z,8.13
2018-03-20T23:13:36.379Z,7.57
2018-03-20T23:16:03.884Z,7.90
2018-03-20T23:18:31.343Z,7.33
2018-03-20T23:20:58.819Z,7.37
2018-03-20T23:23:26.306Z,7.10
2018-03-20T23:25:53.784Z,8.33
2018-03-20T23:28:21.288Z,7.40
2018-03-20T23:30:48.767Z,8.43
2018-03-20T23:33:16.257Z,9.50
2018-03-20T23:35:44.506Z,9.47
2018-03-20T23:38:11.984Z,10.23
2018-03-20T23:40:40.226Z,9.90
2018-03-20T23:43:07.699Z,11.30
2018-03-20T23:45:35.207Z,13.90
2018-03-20T23:48:02.678Z,12.23
2018-03-20T23:50:30.281Z,11.23
2018-03-20T23:52:57.767Z,9.03
2018-03-20T23:55:25.236Z,9.37
2018-03-20T23:57:52.722Z,8.43
